Aviation Digital Data Service (ADDS)

Output produced by METARs form (1941 UTC 18 June 2019)
found at http://www.aviationweather.gov/metar/data/
 
LPBJ 181900Z 27013KT 9999 FEW045 23/12 Q1016
TAF LPBJ 181708Z 1818/1918 24010KT 9999 SCT040 
     BECMG 1823/1901 SCT006 BKN012 
     PROB40 
     TEMPO 1823/1908 4000 -DZ BR SCT003 BKN006 
     BECMG 1910/1912 FEW030
       
LPCS 181930Z 18011KT 9000 VCSH FEW002 SCT004 BKN010 18/17 Q1015
TAF LPCS 181400Z 1815/1824 19015KT 9999 FEW008 SCT015 
     BECMG 1815/1818 20010KT 5000 BR SCT004 BKN008 
     PROB40 
     TEMPO 1818/1824 1200 DZRA BR BKN002
       
LPFR 181930Z 22007KT 9999 FEW011 SCT014 19/18 Q1016
TAF LPFR 181700Z 1818/1918 23012KT 9999 SCT020 
     BECMG 1818/1821 28007KT SCT012 
     BECMG 1822/1901 VRB03KT 6000 SCT005 BKN010 
     PROB40 
     TEMPO 1901/1908 1200 PRFG BKN001 
     BECMG 1908/1911 23008KT 9999 FEW018 BKN025 
     BECMG 1914/1917 26008KT 9999 FEW030
       
LPFL 181930Z 17009KT 9999 SCT017 19/15 Q1016
LPHR 181930Z 07007KT 040V110 9999 SCT014 SCT030 19/15 Q1016
TAF LPHR 181400Z 1815/1824 VRB05KT 9999 SCT020
       
LPLA 181900Z /////KT 7000 2000W -RA FEW020 SCT035 17/15 Q1018
TAF LPLA 181709Z 1818/1918 VRB05KT 9999 SCT025 
     PROB40 
     TEMPO 1818/1918 7000 -SHRA SCT014 BKN020 
     BECMG 1909/1911 15012KT
       
LPPT 181930Z 21012KT 7000 -RADZ SCT006 BKN010 19/18 Q1015
TAF LPPT 181700Z 1818/1924 20018KT 9999 SCT008 BKN012 
     BECMG 1818/1820 21008KT 
     TEMPO 1821/1908 5000 BR SCT004 BKN008 
     PROB40 
     TEMPO 1821/1908 1200 DZRA BR BKN003 
     BECMG 1908/1911 FEW015 BKN025 
     BECMG 1916/1918 27007KT SCT020 
     BECMG 1920/1922 32005KT FEW015
       
LPMA 181930Z 04004KT 360V080 9999 SCT016 21/17 Q1017
TAF LPMA 181700Z 1818/1918 VRB05KT 9999 SCT016 
     TEMPO 1912/1918 BKN015
       
LPMR 181900Z 23010KT 9000 FEW010 SCT035 19/18 Q1014
TAF LPMR 181108Z 1812/1912 20015KT 9999 FEW020 SCT035 
     TEMPO 1812/1819 21018G30KT 4000 -RA SCT015 BKN030 
     BECMG 1819/1821 20008KT SCT006 BKN012 
     PROB40 
     TEMPO 1820/1906 3000 DZ BR SCT002 BKN004 
     BECMG 1910/1912 27008KT SCT020
       
LPMT 181900Z 22010KT 9999 SCT010 BKN015 BKN030 21/18 Q1015
TAF LPMT 181108Z 1812/1912 20012KT 9999 SCT020 
     TEMPO 1812/1817 21015G28KT BKN020 
     BECMG 1819/1821 22008KT SCT010 BKN015 
     PROB40 
     TEMPO 1820/1908 2000 DZRA BR SCT004 BKN008 
     BECMG 1910/1912 SCT025
       
LPOV 181900Z 20013KT 160V230 7000 BKN006 BKN015 18/17 Q1013
TAF AMD LPOV 181918Z 1819/1918 20012KT 9999 SCT005 BKN010 
     TEMPO 1819/1820 21015G25KT 
     PROB40 
     TEMPO 1819/1908 1200 DZRA BR SCT001 BKN002 
     BECMG 1820/1822 20005KT 
     BECMG 1910/1912 30008KT SCT015
       
LPPD 181930Z 06005KT 020V110 9999 FEW018 SCT030 19/14 Q1017
TAF LPPD 181700Z 1818/1918 VRB05KT 9999 SCT015 BKN025 
     TEMPO 1818/1918 SCT018 
     BECMG 1909/1912 16008KT 
     BECMG 1912/1915 20008KT
       
LPPR 181930Z 20011KT 2500 BR SCT001 BKN002 17/17 Q1013
TAF LPPR 181700Z 1818/1918 19018KT 8000 SCT005 BKN010 
     TEMPO 1818/1908 2000 -RADZ BR SCT002 BKN004 
     BECMG 1819/1821 21010KT 
     PROB40 
     TEMPO 1822/1908 1200 DZ PRFG BKN001 
     BECMG 1908/1911 26008KT 9999 SCT008 BKN015 
     BECMG 1915/1918 32005KT
       
LPPS 181930Z 27008KT 250V310 9999 SCT012 21/18 Q1018
TAF AMD LPPS 181833Z 1818/1924 27012KT 9999 SCT012 
     TEMPO 1818/1910 BKN012 
     BECMG 1908/1911 30010KT
       
LPAZ 181930Z 30004KT 260V340 9999 SCT013 20/16 Q1017
TAF LPAZ 181700Z 1818/1924 VRB05KT 9999 FEW018 BKN035 
     TEMPO 1818/1924 SCT020 
     BECMG 1909/1912 16008KT 
     BECMG 1915/1918 20008KT
       
LPST 181800Z 21010KT 9999 SCT009 BKN013 19/16 Q1015
TAF LPST 181406Z 1815/1824 20015KT 9999 SCT015 
     TEMPO 1815/1818 21018G30KT BKN012 
     BECMG 1816/1819 20008KT SCT005 BKN010 
     TEMPO 1818/1824 2000 DZRA BR SCT002 BKN004